sensor_id;sensor_type;location;lat;lon;timestamp;P1;durP1;ratioP1;P2;durP2;ratioP2
39890;SDS011;25564;53.312;9.790;2023-04-28T00:01:33;12.90;;;6.27;;
39890;SDS011;25564;53.312;9.790;2023-04-28T00:04:05;11.20;;;4.90;;
39890;SDS011;25564;53.312;9.790;2023-04-28T00:06:36;13.87;;;5.70;;
39890;SDS011;25564;53.312;9.790;2023-04-28T00:09:08;11.93;;;6.43;;
39890;SDS011;25564;53.312;9.790;2023-04-28T00:11:43;11.23;;;5.40;;
39890;SDS011;25564;53.312;9.790;2023-04-28T00:14:15;12.83;;;6.40;;
39890;SDS011;25564;53.312;9.790;2023-04-28T00:16:48;10.53;;;6.33;;
39890;SDS011;25564;53.312;9.790;2023-04-28T00:19:19;12.63;;;6.63;;
39890;SDS011;25564;53.312;9.790;2023-04-28T00:21:51;11.77;;;5.73;;
39890;SDS011;25564;53.312;9.790;2023-04-28T00:24:22;14.07;;;6.33;;
39890;SDS011;25564;53.312;9.790;2023-04-28T00:26:54;12.63;;;6.43;;
39890;SDS011;25564;53.312;9.790;2023-04-28T00:29:27;10.63;;;5.53;;
39890;SDS011;25564;53.312;9.790;2023-04-28T00:31:58;10.23;;;5.80;;
39890;SDS011;25564;53.312;9.790;2023-04-28T00:34:33;13.07;;;6.57;;
39890;SDS011;25564;53.312;9.790;2023-04-28T00:37:07;12.17;;;6.40;;
39890;SDS011;25564;53.312;9.790;2023-04-28T00:39:38;14.93;;;6.20;;
39890;SDS011;25564;53.312;9.790;2023-04-28T00:42:14;12.47;;;6.37;;
39890;SDS011;25564;53.312;9.790;2023-04-28T00:44:45;13.37;;;5.90;;
39890;SDS011;25564;53.312;9.790;2023-04-28T00:47:17;12.10;;;6.37;;
39890;SDS011;25564;53.312;9.790;2023-04-28T00:49:49;14.30;;;7.63;;
39890;SDS011;25564;53.312;9.790;2023-04-28T00:52:20;13.43;;;6.93;;
39890;SDS011;25564;53.312;9.790;2023-04-28T00:54:52;16.60;;;6.30;;
39890;SDS011;25564;53.312;9.790;2023-04-28T00:57:23;14.57;;;6.80;;
39890;SDS011;25564;53.312;9.790;2023-04-28T00:59:54;12.23;;;6.33;;
39890;SDS011;25564;53.312;9.790;2023-04-28T01:02:26;12.60;;;6.43;;
39890;SDS011;25564;53.312;9.790;2023-04-28T01:04:59;11.90;;;6.27;;
39890;SDS011;25564;53.312;9.790;2023-04-28T01:07:31;12.27;;;6.10;;
39890;SDS011;25564;53.312;9.790;2023-04-28T01:10:05;9.93;;;5.57;;
39890;SDS011;25564;53.312;9.790;2023-04-28T01:12:37;11.57;;;5.60;;
39890;SDS011;25564;53.312;9.790;2023-04-28T01:15:14;15.77;;;6.30;;
39890;SDS011;25564;53.312;9.790;2023-04-28T01:17:47;16.23;;;5.97;;
39890;SDS011;25564;53.312;9.790;2023-04-28T01:20:18;10.80;;;5.70;;
39890;SDS011;25564;53.312;9.790;2023-04-28T01:22:50;12.20;;;6.00;;
39890;SDS011;25564;53.312;9.790;2023-04-28T01:25:21;12.37;;;5.20;;
39890;SDS011;25564;53.312;9.790;2023-04-28T01:27:52;16.60;;;6.20;;
39890;SDS011;25564;53.312;9.790;2023-04-28T01:30:24;12.30;;;6.27;;
39890;SDS011;25564;53.312;9.790;2023-04-28T01:32:55;12.87;;;5.67;;
39890;SDS011;25564;53.312;9.790;2023-04-28T01:35:27;11.23;;;5.87;;
39890;SDS011;25564;53.312;9.790;2023-04-28T01:37:58;11.27;;;6.03;;
39890;SDS011;25564;53.312;9.790;2023-04-28T01:40:29;19.00;;;6.47;;
39890;SDS011;25564;53.312;9.790;2023-04-28T01:43:01;10.23;;;5.70;;
39890;SDS011;25564;53.312;9.790;2023-04-28T01:45:33;13.43;;;6.53;;
39890;SDS011;25564;53.312;9.790;2023-04-28T01:48:04;12.80;;;5.90;;
39890;SDS011;25564;53.312;9.790;2023-04-28T01:50:36;14.50;;;6.10;;
39890;SDS011;25564;53.312;9.790;2023-04-28T01:53:07;12.07;;;5.47;;
39890;SDS011;25564;53.312;9.790;2023-04-28T01:55:38;10.57;;;5.53;;
39890;SDS011;25564;53.312;9.790;2023-04-28T01:58:10;16.13;;;6.13;;
39890;SDS011;25564;53.312;9.790;2023-04-28T02:00:41;10.37;;;5.40;;
39890;SDS011;25564;53.312;9.790;2023-04-28T02:03:12;13.43;;;6.17;;
39890;SDS011;25564;53.312;9.790;2023-04-28T02:05:44;14.43;;;5.87;;
39890;SDS011;25564;53.312;9.790;2023-04-28T02:08:15;13.80;;;5.90;;
39890;SDS011;25564;53.312;9.790;2023-04-28T02:10:47;11.90;;;5.83;;
39890;SDS011;25564;53.312;9.790;2023-04-28T02:13:18;11.20;;;4.83;;
39890;SDS011;25564;53.312;9.790;2023-04-28T02:15:49;10.03;;;5.67;;
39890;SDS011;25564;53.312;9.790;2023-04-28T02:18:21;9.07;;;5.07;;
39890;SDS011;25564;53.312;9.790;2023-04-28T02:20:52;12.30;;;5.97;;
39890;SDS011;25564;53.312;9.790;2023-04-28T02:23:23;13.10;;;5.80;;
39890;SDS011;25564;53.312;9.790;2023-04-28T02:26:01;13.63;;;6.00;;
39890;SDS011;25564;53.312;9.790;2023-04-28T02:28:33;7.73;;;5.17;;
39890;SDS011;25564;53.312;9.790;2023-04-28T02:31:05;10.50;;;5.03;;
39890;SDS011;25564;53.312;9.790;2023-04-28T02:33:38;9.93;;;5.57;;
39890;SDS011;25564;53.312;9.790;2023-04-28T02:36:09;11.93;;;5.37;;
39890;SDS011;25564;53.312;9.790;2023-04-28T02:38:41;13.67;;;6.17;;
39890;SDS011;25564;53.312;9.790;2023-04-28T02:41:12;11.80;;;5.67;;
39890;SDS011;25564;53.312;9.790;2023-04-28T02:43:45;13.23;;;5.80;;
39890;SDS011;25564;53.312;9.790;2023-04-28T02:46:16;13.70;;;5.53;;
39890;SDS011;25564;53.312;9.790;2023-04-28T02:48:48;14.17;;;5.90;;
39890;SDS011;25564;53.312;9.790;2023-04-28T02:51:19;11.83;;;6.07;;
39890;SDS011;25564;53.312;9.790;2023-04-28T02:53:50;11.67;;;6.23;;
39890;SDS011;25564;53.312;9.790;2023-04-28T02:56:21;11.30;;;6.53;;
39890;SDS011;25564;53.312;9.790;2023-04-28T02:58:53;10.23;;;5.60;;
39890;SDS011;25564;53.312;9.790;2023-04-28T03:01:24;15.03;;;5.70;;
39890;SDS011;25564;53.312;9.790;2023-04-28T03:03:56;11.33;;;6.27;;
39890;SDS011;25564;53.312;9.790;2023-04-28T03:06:27;12.10;;;5.90;;
39890;SDS011;25564;53.312;9.790;2023-04-28T03:08:59;14.37;;;5.33;;
39890;SDS011;25564;53.312;9.790;2023-04-28T03:11:30;13.03;;;6.37;;
39890;SDS011;25564;53.312;9.790;2023-04-28T03:14:01;11.43;;;5.83;;
39890;SDS011;25564;53.312;9.790;2023-04-28T03:16:33;11.33;;;5.37;;
39890;SDS011;25564;53.312;9.790;2023-04-28T03:19:04;11.10;;;5.57;;
39890;SDS011;25564;53.312;9.790;2023-04-28T03:21:35;9.97;;;4.80;;
39890;SDS011;25564;53.312;9.790;2023-04-28T03:24:07;11.63;;;5.43;;
39890;SDS011;25564;53.312;9.790;2023-04-28T03:26:38;12.20;;;5.70;;
39890;SDS011;25564;53.312;9.790;2023-04-28T03:29:09;14.13;;;5.57;;
39890;SDS011;25564;53.312;9.790;2023-04-28T03:31:41;13.30;;;5.53;;
39890;SDS011;25564;53.312;9.790;2023-04-28T03:34:12;12.17;;;5.80;;
39890;SDS011;25564;53.312;9.790;2023-04-28T03:36:44;11.83;;;5.70;;
39890;SDS011;25564;53.312;9.790;2023-04-28T03:39:16;10.37;;;5.47;;
39890;SDS011;25564;53.312;9.790;2023-04-28T03:41:47;7.87;;;4.97;;
39890;SDS011;25564;53.312;9.790;2023-04-28T03:44:18;15.60;;;5.77;;
39890;SDS011;25564;53.312;9.790;2023-04-28T03:46:49;10.63;;;4.87;;
39890;SDS011;25564;53.312;9.790;2023-04-28T03:49:21;12.27;;;5.27;;
39890;SDS011;25564;53.312;9.790;2023-04-28T03:51:52;11.50;;;5.13;;
39890;SDS011;25564;53.312;9.790;2023-04-28T03:54:23;9.63;;;5.30;;
39890;SDS011;25564;53.312;9.790;2023-04-28T03:56:55;8.67;;;5.20;;
39890;SDS011;25564;53.312;9.790;2023-04-28T03:59:26;9.97;;;4.40;;
39890;SDS011;25564;53.312;9.790;2023-04-28T04:01:58;12.40;;;5.60;;
39890;SDS011;25564;53.312;9.790;2023-04-28T04:04:29;11.73;;;6.63;;
39890;SDS011;25564;53.312;9.790;2023-04-28T04:07:01;8.53;;;4.97;;
39890;SDS011;25564;53.312;9.790;2023-04-28T04:09:33;10.70;;;5.27;;
39890;SDS011;25564;53.312;9.790;2023-04-28T04:12:04;11.87;;;5.17;;
39890;SDS011;25564;53.312;9.790;2023-04-28T04:14:36;12.23;;;5.27;;
39890;SDS011;25564;53.312;9.790;2023-04-28T04:17:07;10.30;;;5.30;;
39890;SDS011;25564;53.312;9.790;2023-04-28T04:19:39;11.30;;;5.60;;
39890;SDS011;25564;53.312;9.790;2023-04-28T04:22:11;11.53;;;5.20;;
39890;SDS011;25564;53.312;9.790;2023-04-28T04:24:42;9.27;;;4.50;;
39890;SDS011;25564;53.312;9.790;2023-04-28T04:27:14;10.37;;;5.23;;
39890;SDS011;25564;53.312;9.790;2023-04-28T04:29:45;14.00;;;5.40;;
39890;SDS011;25564;53.312;9.790;2023-04-28T04:32:17;9.50;;;4.57;;
39890;SDS011;25564;53.312;9.790;2023-04-28T04:34:48;11.97;;;5.20;;
39890;SDS011;25564;53.312;9.790;2023-04-28T04:37:20;10.40;;;5.37;;
39890;SDS011;25564;53.312;9.790;2023-04-28T04:39:52;8.30;;;4.37;;
39890;SDS011;25564;53.312;9.790;2023-04-28T04:42:23;9.90;;;4.73;;
39890;SDS011;25564;53.312;9.790;2023-04-28T04:44:59;11.03;;;5.13;;
39890;SDS011;25564;53.312;9.790;2023-04-28T04:47:42;9.13;;;4.93;;
39890;SDS011;25564;53.312;9.790;2023-04-28T04:52:54;11.00;;;4.60;;
39890;SDS011;25564;53.312;9.790;2023-04-28T04:55:29;10.40;;;5.27;;
39890;SDS011;25564;53.312;9.790;2023-04-28T04:58:00;7.83;;;4.83;;
39890;SDS011;25564;53.312;9.790;2023-04-28T05:00:32;10.57;;;5.07;;
39890;SDS011;25564;53.312;9.790;2023-04-28T05:03:04;11.07;;;4.40;;
39890;SDS011;25564;53.312;9.790;2023-04-28T05:05:36;9.37;;;4.83;;
39890;SDS011;25564;53.312;9.790;2023-04-28T05:08:07;7.10;;;3.93;;
39890;SDS011;25564;53.312;9.790;2023-04-28T05:10:39;7.50;;;4.57;;
39890;SDS011;25564;53.312;9.790;2023-04-28T05:13:10;6.97;;;3.90;;
39890;SDS011;25564;53.312;9.790;2023-04-28T05:15:42;8.50;;;4.60;;
39890;SDS011;25564;53.312;9.790;2023-04-28T05:18:14;6.87;;;3.30;;
39890;SDS011;25564;53.312;9.790;2023-04-28T05:20:46;7.30;;;3.70;;
39890;SDS011;25564;53.312;9.790;2023-04-28T05:23:17;10.73;;;4.10;;
39890;SDS011;25564;53.312;9.790;2023-04-28T05:25:48;6.20;;;3.80;;
39890;SDS011;25564;53.312;9.790;2023-04-28T05:28:20;9.70;;;4.00;;
39890;SDS011;25564;53.312;9.790;2023-04-28T05:30:52;6.57;;;3.73;;
39890;SDS011;25564;53.312;9.790;2023-04-28T05:33:23;6.23;;;4.43;;
39890;SDS011;25564;53.312;9.790;2023-04-28T05:35:55;9.13;;;4.37;;
39890;SDS011;25564;53.312;9.790;2023-04-28T05:38:26;7.20;;;3.93;;
39890;SDS011;25564;53.312;9.790;2023-04-28T05:40:57;5.77;;;3.90;;
39890;SDS011;25564;53.312;9.790;2023-04-28T05:43:29;9.07;;;3.50;;
39890;SDS011;25564;53.312;9.790;2023-04-28T05:46:00;6.70;;;3.97;;
39890;SDS011;25564;53.312;9.790;2023-04-28T05:48:31;6.50;;;3.13;;
39890;SDS011;25564;53.312;9.790;2023-04-28T05:51:03;6.73;;;2.70;;
39890;SDS011;25564;53.312;9.790;2023-04-28T05:53:34;6.87;;;3.47;;
39890;SDS011;25564;53.312;9.790;2023-04-28T05:56:06;8.80;;;2.73;;
39890;SDS011;25564;53.312;9.790;2023-04-28T05:58:37;6.13;;;3.60;;
39890;SDS011;25564;53.312;9.790;2023-04-28T06:01:09;6.93;;;3.10;;
39890;SDS011;25564;53.312;9.790;2023-04-28T06:03:41;6.00;;;3.70;;
39890;SDS011;25564;53.312;9.790;2023-04-28T06:06:13;5.87;;;2.67;;
39890;SDS011;25564;53.312;9.790;2023-04-28T06:08:45;5.93;;;3.33;;
39890;SDS011;25564;53.312;9.790;2023-04-28T06:11:17;4.43;;;2.50;;
39890;SDS011;25564;53.312;9.790;2023-04-28T06:13:52;7.30;;;3.13;;
39890;SDS011;25564;53.312;9.790;2023-04-28T06:16:23;8.13;;;2.87;;
39890;SDS011;25564;53.312;9.790;2023-04-28T06:18:55;6.40;;;3.03;;
39890;SDS011;25564;53.312;9.790;2023-04-28T06:21:26;6.60;;;3.07;;
39890;SDS011;25564;53.312;9.790;2023-04-28T06:23:58;6.77;;;3.00;;
39890;SDS011;25564;53.312;9.790;2023-04-28T06:26:30;5.80;;;3.23;;
39890;SDS011;25564;53.312;9.790;2023-04-28T06:29:02;6.13;;;2.60;;
39890;SDS011;25564;53.312;9.790;2023-04-28T06:31:33;5.63;;;2.80;;
39890;SDS011;25564;53.312;9.790;2023-04-28T06:34:05;6.10;;;2.70;;
39890;SDS011;25564;53.312;9.790;2023-04-28T06:36:36;5.17;;;3.03;;
39890;SDS011;25564;53.312;9.790;2023-04-28T06:39:07;10.83;;;2.77;;
39890;SDS011;25564;53.312;9.790;2023-04-28T06:41:39;6.07;;;2.97;;
39890;SDS011;25564;53.312;9.790;2023-04-28T06:44:11;4.27;;;2.50;;
39890;SDS011;25564;53.312;9.790;2023-04-28T06:46:45;4.73;;;2.83;;
39890;SDS011;25564;53.312;9.790;2023-04-28T06:49:16;8.93;;;2.57;;
39890;SDS011;25564;53.312;9.790;2023-04-28T06:51:48;7.63;;;2.70;;
39890;SDS011;25564;53.312;9.790;2023-04-28T06:54:19;5.60;;;2.73;;
39890;SDS011;25564;53.312;9.790;2023-04-28T06:56:50;5.03;;;2.70;;
39890;SDS011;25564;53.312;9.790;2023-04-28T06:59:22;5.37;;;2.80;;
39890;SDS011;25564;53.312;9.790;2023-04-28T07:01:53;11.73;;;3.07;;
39890;SDS011;25564;53.312;9.790;2023-04-28T07:04:25;4.47;;;2.10;;
39890;SDS011;25564;53.312;9.790;2023-04-28T07:06:57;11.77;;;2.80;;
39890;SDS011;25564;53.312;9.790;2023-04-28T07:09:28;4.80;;;2.80;;
39890;SDS011;25564;53.312;9.790;2023-04-28T07:12:02;5.77;;;2.67;;
39890;SDS011;25564;53.312;9.790;2023-04-28T07:14:34;4.00;;;2.30;;
39890;SDS011;25564;53.312;9.790;2023-04-28T07:17:05;4.13;;;2.60;;
39890;SDS011;25564;53.312;9.790;2023-04-28T07:19:36;6.17;;;2.60;;
39890;SDS011;25564;53.312;9.790;2023-04-28T07:22:08;3.37;;;2.40;;
39890;SDS011;25564;53.312;9.790;2023-04-28T07:24:39;5.50;;;2.27;;
39890;SDS011;25564;53.312;9.790;2023-04-28T07:27:11;5.93;;;2.87;;
39890;SDS011;25564;53.312;9.790;2023-04-28T07:29:42;4.47;;;2.10;;
39890;SDS011;25564;53.312;9.790;2023-04-28T07:32:14;4.67;;;2.87;;
39890;SDS011;25564;53.312;9.790;2023-04-28T07:34:45;4.60;;;2.77;;
39890;SDS011;25564;53.312;9.790;2023-04-28T07:37:17;4.80;;;2.37;;
39890;SDS011;25564;53.312;9.790;2023-04-28T07:39:49;5.90;;;2.90;;
39890;SDS011;25564;53.312;9.790;2023-04-28T07:42:20;3.90;;;2.43;;
39890;SDS011;25564;53.312;9.790;2023-04-28T07:44:52;4.03;;;2.30;;
39890;SDS011;25564;53.312;9.790;2023-04-28T07:47:23;5.13;;;2.87;;
39890;SDS011;25564;53.312;9.790;2023-04-28T07:49:55;3.47;;;2.13;;
39890;SDS011;25564;53.312;9.790;2023-04-28T07:52:26;5.00;;;2.10;;
39890;SDS011;25564;53.312;9.790;2023-04-28T07:54:58;3.97;;;2.23;;
39890;SDS011;25564;53.312;9.790;2023-04-28T07:57:29;5.17;;;2.53;;
39890;SDS011;25564;53.312;9.790;2023-04-28T08:00:01;4.50;;;2.20;;
39890;SDS011;25564;53.312;9.790;2023-04-28T08:02:33;4.70;;;2.90;;
39890;SDS011;25564;53.312;9.790;2023-04-28T08:05:05;6.63;;;2.30;;
39890;SDS011;25564;53.312;9.790;2023-04-28T08:07:38;4.70;;;2.97;;
39890;SDS011;25564;53.312;9.790;2023-04-28T08:10:09;5.67;;;2.80;;
39890;SDS011;25564;53.312;9.790;2023-04-28T08:12:41;5.67;;;2.47;;
39890;SDS011;25564;53.312;9.790;2023-04-28T08:15:15;5.13;;;3.10;;
39890;SDS011;25564;53.312;9.790;2023-04-28T08:17:48;7.23;;;3.20;;
39890;SDS011;25564;53.312;9.790;2023-04-28T08:20:20;6.20;;;2.60;;
39890;SDS011;25564;53.312;9.790;2023-04-28T08:22:55;7.50;;;3.13;;
39890;SDS011;25564;53.312;9.790;2023-04-28T08:25:26;5.43;;;2.90;;
39890;SDS011;25564;53.312;9.790;2023-04-28T08:27:58;6.07;;;2.93;;
39890;SDS011;25564;53.312;9.790;2023-04-28T08:30:30;10.87;;;3.20;;
39890;SDS011;25564;53.312;9.790;2023-04-28T08:33:02;5.63;;;2.97;;
39890;SDS011;25564;53.312;9.790;2023-04-28T08:35:34;8.03;;;3.40;;
39890;SDS011;25564;53.312;9.790;2023-04-28T08:38:06;9.13;;;3.30;;
39890;SDS011;25564;53.312;9.790;2023-04-28T08:40:38;4.20;;;2.73;;
39890;SDS011;25564;53.312;9.790;2023-04-28T08:43:10;5.60;;;3.03;;
39890;SDS011;25564;53.312;9.790;2023-04-28T08:45:43;6.77;;;3.20;;
39890;SDS011;25564;53.312;9.790;2023-04-28T08:48:18;4.97;;;3.17;;
39890;SDS011;25564;53.312;9.790;2023-04-28T08:50:52;8.00;;;3.70;;
39890;SDS011;25564;53.312;9.790;2023-04-28T08:53:25;6.77;;;3.40;;
39890;SDS011;25564;53.312;9.790;2023-04-28T08:55:57;12.70;;;5.53;;
39890;SDS011;25564;53.312;9.790;2023-04-28T08:58:28;9.47;;;4.03;;
39890;SDS011;25564;53.312;9.790;2023-04-28T09:00:59;5.93;;;3.17;;
39890;SDS011;25564;53.312;9.790;2023-04-28T09:03:34;6.37;;;3.20;;
39890;SDS011;25564;53.312;9.790;2023-04-28T09:06:06;9.47;;;3.00;;
39890;SDS011;25564;53.312;9.790;2023-04-28T09:08:38;10.23;;;3.37;;
39890;SDS011;25564;53.312;9.790;2023-04-28T09:11:09;7.50;;;3.90;;
39890;SDS011;25564;53.312;9.790;2023-04-28T09:13:43;8.33;;;4.00;;
39890;SDS011;25564;53.312;9.790;2023-04-28T09:16:14;7.27;;;4.43;;
39890;SDS011;25564;53.312;9.790;2023-04-28T09:18:55;7.13;;;3.97;;
39890;SDS011;25564;53.312;9.790;2023-04-28T09:21:28;5.60;;;3.57;;
39890;SDS011;25564;53.312;9.790;2023-04-28T09:23:59;6.07;;;3.53;;
39890;SDS011;25564;53.312;9.790;2023-04-28T09:26:46;4.30;;;3.00;;
39890;SDS011;25564;53.312;9.790;2023-04-28T09:29:19;6.47;;;3.00;;
39890;SDS011;25564;53.312;9.790;2023-04-28T09:31:50;6.67;;;3.27;;
39890;SDS011;25564;53.312;9.790;2023-04-28T09:34:22;6.83;;;3.40;;
39890;SDS011;25564;53.312;9.790;2023-04-28T09:36:53;6.93;;;3.33;;
39890;SDS011;25564;53.312;9.790;2023-04-28T09:39:29;6.20;;;3.33;;
39890;SDS011;25564;53.312;9.790;2023-04-28T09:42:01;8.10;;;3.53;;
39890;SDS011;25564;53.312;9.790;2023-04-28T09:44:33;6.97;;;3.40;;
39890;SDS011;25564;53.312;9.790;2023-04-28T09:47:18;7.77;;;3.93;;
39890;SDS011;25564;53.312;9.790;2023-04-28T09:49:59;8.87;;;4.00;;
39890;SDS011;25564;53.312;9.790;2023-04-28T09:52:32;10.37;;;4.20;;
39890;SDS011;25564;53.312;9.790;2023-04-28T09:55:05;6.87;;;3.77;;
39890;SDS011;25564;53.312;9.790;2023-04-28T09:57:38;11.03;;;4.17;;
39890;SDS011;25564;53.312;9.790;2023-04-28T10:00:10;4.80;;;3.27;;
39890;SDS011;25564;53.312;9.790;2023-04-28T10:02:42;7.87;;;4.20;;
39890;SDS011;25564;53.312;9.790;2023-04-28T10:05:15;5.80;;;3.83;;
39890;SDS011;25564;53.312;9.790;2023-04-28T10:07:47;9.77;;;4.40;;
39890;SDS011;25564;53.312;9.790;2023-04-28T10:10:18;8.07;;;3.90;;
39890;SDS011;25564;53.312;9.790;2023-04-28T10:12:50;6.90;;;3.30;;
39890;SDS011;25564;53.312;9.790;2023-04-28T10:15:22;7.53;;;3.63;;
39890;SDS011;25564;53.312;9.790;2023-04-28T10:17:54;5.73;;;3.27;;
39890;SDS011;25564;53.312;9.790;2023-04-28T10:20:27;7.27;;;3.50;;
39890;SDS011;25564;53.312;9.790;2023-04-28T10:23:53;10.27;;;4.00;;
39890;SDS011;25564;53.312;9.790;2023-04-28T10:26:17;6.17;;;3.33;;
39890;SDS011;25564;53.312;9.790;2023-04-28T10:28:50;7.87;;;4.10;;
39890;SDS011;25564;53.312;9.790;2023-04-28T10:31:22;8.67;;;4.80;;
39890;SDS011;25564;53.312;9.790;2023-04-28T10:33:54;8.60;;;4.10;;
39890;SDS011;25564;53.312;9.790;2023-04-28T10:39:17;7.80;;;4.37;;
39890;SDS011;25564;53.312;9.790;2023-04-28T10:41:48;7.10;;;4.10;;
39890;SDS011;25564;53.312;9.790;2023-04-28T10:47:04;10.53;;;3.97;;
39890;SDS011;25564;53.312;9.790;2023-04-28T10:55:32;9.33;;;3.07;;
39890;SDS011;25564;53.312;9.790;2023-04-28T11:00:47;7.13;;;3.37;;
39890;SDS011;25564;53.312;9.790;2023-04-28T11:06:24;7.27;;;3.73;;
39890;SDS011;25564;53.312;9.790;2023-04-28T11:09:00;7.57;;;3.58;;
39890;SDS011;25564;53.312;9.790;2023-04-28T11:17:07;9.30;;;3.53;;
39890;SDS011;25564;53.312;9.790;2023-04-28T11:19:42;7.32;;;3.83;;
39890;SDS011;25564;53.312;9.790;2023-04-28T11:22:21;7.90;;;3.60;;
39890;SDS011;25564;53.312;9.790;2023-04-28T11:24:58;6.45;;;3.30;;
39890;SDS011;25564;53.312;9.790;2023-04-28T11:27:31;6.40;;;3.30;;
39890;SDS011;25564;53.312;9.790;2023-04-28T11:30:18;6.30;;;3.83;;
39890;SDS011;25564;53.312;9.790;2023-04-28T11:32:50;8.40;;;3.95;;
39890;SDS011;25564;53.312;9.790;2023-04-28T11:35:21;8.35;;;3.67;;
39890;SDS011;25564;53.312;9.790;2023-04-28T11:38:02;7.00;;;3.25;;
39890;SDS011;25564;53.312;9.790;2023-04-28T11:40:36;8.40;;;3.70;;
39890;SDS011;25564;53.312;9.790;2023-04-28T11:43:08;6.25;;;3.75;;
39890;SDS011;25564;53.312;9.790;2023-04-28T11:45:44;6.38;;;3.00;;
39890;SDS011;25564;53.312;9.790;2023-04-28T11:48:20;5.22;;;3.50;;
39890;SDS011;25564;53.312;9.790;2023-04-28T11:50:53;7.70;;;3.90;;
39890;SDS011;25564;53.312;9.790;2023-04-28T11:53:43;8.23;;;3.75;;
39890;SDS011;25564;53.312;9.790;2023-04-28T11:56:15;6.07;;;3.50;;
39890;SDS011;25564;53.312;9.790;2023-04-28T11:58:58;8.20;;;3.75;;
39890;SDS011;25564;53.312;9.790;2023-04-28T12:04:40;6.63;;;3.45;;
39890;SDS011;25564;53.312;9.790;2023-04-28T12:07:13;7.13;;;3.65;;
39890;SDS011;25564;53.312;9.790;2023-04-28T12:10:15;12.00;;;3.95;;
39890;SDS011;25564;53.312;9.790;2023-04-28T12:13:14;7.37;;;4.10;;
39890;SDS011;25564;53.312;9.790;2023-04-28T12:16:11;5.20;;;3.40;;
39890;SDS011;25564;53.312;9.790;2023-04-28T12:19:10;9.07;;;3.17;;
39890;SDS011;25564;53.312;9.790;2023-04-28T12:21:43;6.88;;;3.58;;
39890;SDS011;25564;53.312;9.790;2023-04-28T12:24:18;6.88;;;3.35;;
39890;SDS011;25564;53.312;9.790;2023-04-28T12:39:49;5.28;;;3.30;;
39890;SDS011;25564;53.312;9.790;2023-04-28T12:42:35;7.25;;;3.20;;
39890;SDS011;25564;53.312;9.790;2023-04-28T12:45:13;7.53;;;3.33;;
39890;SDS011;25564;53.312;9.790;2023-04-28T12:51:12;6.82;;;3.45;;
39890;SDS011;25564;53.312;9.790;2023-04-28T12:53:44;8.90;;;3.53;;
39890;SDS011;25564;53.312;9.790;2023-04-28T12:59:57;9.23;;;3.95;;
39890;SDS011;25564;53.312;9.790;2023-04-28T13:02:29;9.43;;;4.10;;
39890;SDS011;25564;53.312;9.790;2023-04-28T13:05:47;6.43;;;3.70;;
39890;SDS011;25564;53.312;9.790;2023-04-28T13:08:43;7.13;;;3.65;;
39890;SDS011;25564;53.312;9.790;2023-04-28T13:11:18;8.35;;;3.88;;
39890;SDS011;25564;53.312;9.790;2023-04-28T13:13:53;6.55;;;3.67;;
39890;SDS011;25564;53.312;9.790;2023-04-28T13:16:27;9.15;;;4.03;;
39890;SDS011;25564;53.312;9.790;2023-04-28T13:19:38;7.43;;;3.87;;
39890;SDS011;25564;53.312;9.790;2023-04-28T13:22:09;4.90;;;3.43;;
39890;SDS011;25564;53.312;9.790;2023-04-28T13:24:41;9.50;;;3.50;;
39890;SDS011;25564;53.312;9.790;2023-04-28T13:27:13;8.63;;;3.20;;
39890;SDS011;25564;53.312;9.790;2023-04-28T13:29:53;6.60;;;4.13;;
39890;SDS011;25564;53.312;9.790;2023-04-28T13:32:28;8.13;;;4.13;;
39890;SDS011;25564;53.312;9.790;2023-04-28T13:35:03;12.67;;;4.20;;
39890;SDS011;25564;53.312;9.790;2023-04-28T13:37:35;7.37;;;3.90;;
39890;SDS011;25564;53.312;9.790;2023-04-28T13:40:19;8.80;;;3.40;;
39890;SDS011;25564;53.312;9.790;2023-04-28T13:42:51;14.30;;;4.70;;
39890;SDS011;25564;53.312;9.790;2023-04-28T13:45:41;11.20;;;3.97;;
39890;SDS011;25564;53.312;9.790;2023-04-28T13:48:12;7.63;;;3.63;;
39890;SDS011;25564;53.312;9.790;2023-04-28T13:51:04;5.63;;;3.40;;
39890;SDS011;25564;53.312;9.790;2023-04-28T13:53:43;6.97;;;3.40;;
39890;SDS011;25564;53.312;9.790;2023-04-28T13:56:50;6.33;;;3.37;;
39890;SDS011;25564;53.312;9.790;2023-04-28T14:01:54;7.63;;;3.90;;
39890;SDS011;25564;53.312;9.790;2023-04-28T14:08:01;7.87;;;3.80;;
39890;SDS011;25564;53.312;9.790;2023-04-28T14:10:36;9.95;;;3.85;;
39890;SDS011;25564;53.312;9.790;2023-04-28T14:13:40;7.80;;;3.40;;
39890;SDS011;25564;53.312;9.790;2023-04-28T14:19:53;9.50;;;4.33;;
39890;SDS011;25564;53.312;9.790;2023-04-28T14:22:28;11.07;;;3.33;;
39890;SDS011;25564;53.312;9.790;2023-04-28T14:25:00;7.70;;;3.93;;
39890;SDS011;25564;53.312;9.790;2023-04-28T14:27:32;7.93;;;3.70;;
39890;SDS011;25564;53.312;9.790;2023-04-28T14:30:04;11.80;;;5.10;;
39890;SDS011;25564;53.312;9.790;2023-04-28T14:32:52;7.10;;;3.03;;
39890;SDS011;25564;53.312;9.790;2023-04-28T14:35:27;6.47;;;3.10;;
39890;SDS011;25564;53.312;9.790;2023-04-28T14:38:56;7.27;;;3.63;;
39890;SDS011;25564;53.312;9.790;2023-04-28T14:41:34;8.23;;;3.87;;
39890;SDS011;25564;53.312;9.790;2023-04-28T14:44:25;16.60;;;3.50;;
39890;SDS011;25564;53.312;9.790;2023-04-28T14:47:39;9.00;;;3.23;;
39890;SDS011;25564;53.312;9.790;2023-04-28T14:50:11;8.80;;;3.33;;
39890;SDS011;25564;53.312;9.790;2023-04-28T14:52:44;9.57;;;3.27;;
39890;SDS011;25564;53.312;9.790;2023-04-28T14:55:15;7.90;;;3.20;;
39890;SDS011;25564;53.312;9.790;2023-04-28T14:57:47;9.83;;;3.67;;
39890;SDS011;25564;53.312;9.790;2023-04-28T15:00:18;7.00;;;3.60;;
39890;SDS011;25564;53.312;9.790;2023-04-28T15:02:49;10.77;;;3.13;;
39890;SDS011;25564;53.312;9.790;2023-04-28T15:05:21;9.77;;;3.10;;
39890;SDS011;25564;53.312;9.790;2023-04-28T15:07:52;8.53;;;3.13;;
39890;SDS011;25564;53.312;9.790;2023-04-28T15:10:24;4.43;;;2.73;;
39890;SDS011;25564;53.312;9.790;2023-04-28T15:13:00;7.87;;;3.30;;
39890;SDS011;25564;53.312;9.790;2023-04-28T15:15:33;5.70;;;3.27;;
39890;SDS011;25564;53.312;9.790;2023-04-28T15:18:05;6.97;;;3.20;;
39890;SDS011;25564;53.312;9.790;2023-04-28T15:20:36;7.60;;;3.53;;
39890;SDS011;25564;53.312;9.790;2023-04-28T15:23:08;6.27;;;3.50;;
39890;SDS011;25564;53.312;9.790;2023-04-28T15:25:40;5.57;;;3.37;;
39890;SDS011;25564;53.312;9.790;2023-04-28T15:28:11;4.90;;;3.40;;
39890;SDS011;25564;53.312;9.790;2023-04-28T15:30:43;9.40;;;3.77;;
39890;SDS011;25564;53.312;9.790;2023-04-28T15:33:14;9.73;;;3.40;;
39890;SDS011;25564;53.312;9.790;2023-04-28T15:35:48;10.73;;;4.50;;
39890;SDS011;25564;53.312;9.790;2023-04-28T15:38:20;11.17;;;4.17;;
39890;SDS011;25564;53.312;9.790;2023-04-28T15:40:52;10.80;;;4.10;;
39890;SDS011;25564;53.312;9.790;2023-04-28T15:43:23;9.03;;;4.00;;
39890;SDS011;25564;53.312;9.790;2023-04-28T15:45:55;7.57;;;4.53;;
39890;SDS011;25564;53.312;9.790;2023-04-28T15:48:27;6.27;;;4.47;;
39890;SDS011;25564;53.312;9.790;2023-04-28T15:50:58;8.03;;;4.20;;
39890;SDS011;25564;53.312;9.790;2023-04-28T15:53:30;11.50;;;4.37;;
39890;SDS011;25564;53.312;9.790;2023-04-28T15:56:01;9.07;;;4.23;;
39890;SDS011;25564;53.312;9.790;2023-04-28T15:58:34;9.27;;;4.60;;
39890;SDS011;25564;53.312;9.790;2023-04-28T16:01:05;11.97;;;3.80;;
39890;SDS011;25564;53.312;9.790;2023-04-28T16:03:37;7.97;;;4.23;;
39890;SDS011;25564;53.312;9.790;2023-04-28T16:06:09;7.20;;;3.67;;
39890;SDS011;25564;53.312;9.790;2023-04-28T16:08:41;8.17;;;4.73;;
39890;SDS011;25564;53.312;9.790;2023-04-28T16:11:12;11.07;;;4.37;;
39890;SDS011;25564;53.312;9.790;2023-04-28T16:13:47;8.60;;;4.73;;
39890;SDS011;25564;53.312;9.790;2023-04-28T16:16:19;12.50;;;4.90;;
39890;SDS011;25564;53.312;9.790;2023-04-28T16:18:51;11.27;;;5.00;;
39890;SDS011;25564;53.312;9.790;2023-04-28T16:21:22;11.57;;;5.33;;